createdAt,value
2018-03-20T00:00:05.392Z,93641.28
2018-03-20T00:02:32.036Z,93640.06
2018-03-20T00:05:00.132Z,93640.98
2018-03-20T00:07:25.381Z,93638.87
2018-03-20T00:09:52.046Z,93636.73
2018-03-20T00:12:18.724Z,93639.52
2018-03-20T00:14:45.479Z,93633.31
2018-03-20T00:17:12.118Z,93633.31
2018-03-20T00:19:38.800Z,93633.21
2018-03-20T00:22:05.456Z,93625.42
2018-03-20T00:24:32.055Z,93620.14
2018-03-20T00:27:00.134Z,93620.44
2018-03-20T00:29:25.556Z,93617.19
2018-03-20T00:31:52.314Z,93619.86
2018-03-20T00:34:21.656Z,93616.72
2018-03-20T00:36:48.357Z,93625.42
2018-03-20T00:39:15.099Z,93620.23
2018-03-20T00:41:41.863Z,93621.72
2018-03-20T00:44:08.580Z,93618.58
2018-03-20T00:46:36.597Z,93615.15
2018-03-20T00:49:01.862Z,93611.25
2018-03-20T00:51:28.487Z,93611.73
2018-03-20T00:53:55.115Z,93606.55
2018-03-20T00:56:21.806Z,93600.98
2018-03-20T00:58:49.607Z,93599.41
2018-03-20T01:01:15.118Z,93600.61
2018-03-20T01:03:41.912Z,93606.17
2018-03-20T01:06:08.518Z,93605.59
2018-03-20T01:08:35.186Z,93612.17
2018-03-20T01:11:01.937Z,93611.62
2018-03-20T01:13:28.576Z,93612.64
2018-03-20T01:15:55.271Z,93616.44
2018-03-20T01:18:25.117Z,93620.77
2018-03-20T01:20:51.727Z,93618.94
2018-03-20T01:23:18.423Z,93618.09
2018-03-20T01:25:45.156Z,93627.92
2018-03-20T01:28:11.793Z,93630.97
2018-03-20T01:30:38.512Z,93629.58
2018-03-20T01:33:05.185Z,93637.37
2018-03-20T01:35:37.971Z,93635.98
2018-03-20T01:38:07.964Z,93636.52
2018-03-20T01:40:34.701Z,93637.81
2018-03-20T01:43:01.336Z,93643.09
2018-03-20T01:45:28.122Z,93647.89
2018-03-20T01:47:54.719Z,93644.20
2018-03-20T01:50:21.387Z,93652.27
2018-03-20T01:52:48.044Z,93652.00
2018-03-20T01:55:14.709Z,93651.91
2018-03-20T01:57:41.400Z,93656.44
2018-03-20T02:00:08.029Z,93658.95
2018-03-20T02:02:34.696Z,93656.07
2018-03-20T02:05:01.343Z,93655.05
2018-03-20T02:07:28.034Z,93656.17
2018-03-20T02:09:54.989Z,93660.14
2018-03-20T02:12:21.638Z,93661.72
2018-03-20T02:14:48.354Z,93667.28
2018-03-20T02:17:14.961Z,93665.33
2018-03-20T02:19:41.643Z,93665.22
2018-03-20T02:22:09.609Z,93658.47
2018-03-20T02:24:34.896Z,93666.71
2018-03-20T02:27:01.679Z,93661.06
2018-03-20T02:29:28.311Z,93669.77
2018-03-20T02:31:55.069Z,93674.95
2018-03-20T02:34:21.676Z,93673.66
2018-03-20T02:36:48.312Z,93673.56
2018-03-20T02:39:15.057Z,93668.20
2018-03-20T02:41:43.091Z,93666.91
2018-03-20T02:44:08.384Z,93669.86
2018-03-20T02:46:35.010Z,93679.04
2018-03-20T02:49:01.707Z,93674.77
2018-03-20T02:51:28.346Z,93676.91
2018-03-20T02:53:55.014Z,93684.30
2018-03-20T02:56:21.620Z,93673.86
2018-03-20T02:58:48.358Z,93675.41
2018-03-20T03:01:15.037Z,93672.09
2018-03-20T03:03:41.708Z,93668.00
2018-03-20T03:06:08.383Z,93675.42
2018-03-20T03:08:35.045Z,93680.42
2018-03-20T03:11:04.760Z,93677.35
2018-03-20T03:13:31.361Z,93671.25
2018-03-20T03:15:58.030Z,93673.48
2018-03-20T03:18:24.711Z,93673.75
2018-03-20T03:20:52.339Z,93679.86
2018-03-20T03:23:18.050Z,93680.33
2018-03-20T03:25:44.659Z,93690.70
2018-03-20T03:28:12.554Z,93682.83
2018-03-20T03:30:38.061Z,93686.42
2018-03-20T03:33:04.755Z,93680.88
2018-03-20T03:35:32.743Z,93673.11
2018-03-20T03:37:58.021Z,93681.89
2018-03-20T03:40:24.696Z,93682.83
2018-03-20T03:42:51.305Z,93687.07
2018-03-20T03:45:17.983Z,93693.10
2018-03-20T03:47:44.701Z,93690.22
2018-03-20T03:50:11.336Z,93691.98
2018-03-20T03:52:38.027Z,93693.47
2018-03-20T03:55:04.754Z,93699.95
2018-03-20T03:57:31.421Z,93702.01
2018-03-20T03:59:58.068Z,93707.19
2018-03-20T04:02:24.670Z,93708.48
2018-03-20T04:04:51.338Z,93718.95
2018-03-20T04:07:17.975Z,93713.39
2018-03-20T04:09:44.775Z,93713.13
2018-03-20T04:12:14.291Z,93712.82
2018-03-20T04:14:40.983Z,93713.94
2018-03-20T04:17:07.615Z,93720.78
2018-03-20T04:19:36.177Z,93718.75
2018-03-20T04:22:02.983Z,93715.53
2018-03-20T04:24:32.555Z,93720.34
2018-03-20T04:26:59.224Z,93727.46
2018-03-20T04:29:25.863Z,93734.23
2018-03-20T04:31:52.466Z,93728.20
2018-03-20T04:34:21.707Z,93738.20
2018-03-20T04:36:48.385Z,93741.92
2018-03-20T04:39:14.986Z,93749.41
2018-03-20T04:41:41.633Z,93756.26
2018-03-20T04:44:08.260Z,93759.78
2018-03-20T04:46:34.907Z,93760.73
2018-03-20T04:49:01.843Z,93769.50
2018-03-20T04:51:28.489Z,93778.78
2018-03-20T04:53:56.541Z,93783.39
2018-03-20T04:56:21.767Z,93785.43
2018-03-20T04:58:48.449Z,93793.12
2018-03-20T05:01:15.059Z,93800.34
2018-03-20T05:03:41.725Z,93797.77
2018-03-20T05:06:08.319Z,93799.41
2018-03-20T05:08:34.980Z,93802.31
2018-03-20T05:11:01.607Z,93801.84
2018-03-20T05:13:28.278Z,93804.78
2018-03-20T05:15:54.882Z,93800.73
2018-03-20T05:18:21.597Z,93804.77
2018-03-20T05:20:48.272Z,93809.80
2018-03-20T05:23:14.912Z,93809.14
2018-03-20T05:25:41.826Z,93813.78
2018-03-20T05:28:08.489Z,93813.92
2018-03-20T05:30:36.138Z,93812.45
2018-03-20T05:33:01.764Z,93817.27
2018-03-20T05:35:29.789Z,93820.70
2018-03-20T05:37:55.008Z,93833.30
2018-03-20T05:40:21.657Z,93828.03
2018-03-20T05:42:51.694Z,93839.52
2018-03-20T05:45:18.311Z,93845.81
2018-03-20T05:47:44.938Z,93844.61
2018-03-20T05:50:11.589Z,93843.70
2018-03-20T05:52:38.344Z,93855.19
2018-03-20T05:55:06.284Z,93859.92
2018-03-20T05:57:32.800Z,93857.50
2018-03-20T05:59:58.238Z,93858.52
2018-03-20T06:02:24.874Z,93870.11
2018-03-20T06:04:51.559Z,93863.25
2018-03-20T06:07:18.196Z,93865.94
2018-03-20T06:09:44.798Z,93870.20
2018-03-20T06:12:11.446Z,93868.92
2018-03-20T06:14:38.092Z,93874.41
2018-03-20T06:17:04.758Z,93867.46
2018-03-20T06:19:31.374Z,93876.98
2018-03-20T06:21:59.148Z,93878.38
2018-03-20T06:24:25.809Z,93884.05
2018-03-20T06:26:53.779Z,93892.38
2018-03-20T06:29:19.118Z,93901.82
2018-03-20T06:31:45.784Z,93898.02
2018-03-20T06:34:12.498Z,93902.56
2018-03-20T06:36:39.105Z,93902.94
2018-03-20T06:39:05.750Z,93904.80
2018-03-20T06:41:32.416Z,93908.70
2018-03-20T06:43:59.023Z,93913.23
2018-03-20T06:46:27.219Z,93913.33
2018-03-20T06:48:52.291Z,93914.90
2018-03-20T06:51:18.984Z,93919.71
2018-03-20T06:53:45.654Z,93922.03
2018-03-20T06:56:12.252Z,93929.92
2018-03-20T06:58:38.917Z,93928.16
2018-03-20T07:01:05.573Z,93937.25
2018-03-20T07:03:34.506Z,93943.36
2018-03-20T07:05:58.908Z,93934.64
2018-03-20T07:08:25.584Z,93933.80
2018-03-20T07:10:55.689Z,93929.72
2018-03-20T07:13:24.728Z,93934.95
2018-03-20T07:15:50.219Z,93936.24
2018-03-20T07:18:16.991Z,93940.66
2018-03-20T07:20:43.586Z,93945.84
2018-03-20T07:23:12.272Z,93952.77
2018-03-20T07:25:36.884Z,93955.50
2018-03-20T07:28:03.560Z,93952.95
2018-03-20T07:30:30.259Z,93956.84
2018-03-20T07:32:56.874Z,93956.14
2018-03-20T07:35:23.526Z,93953.84
2018-03-20T07:37:50.245Z,93950.77
2018-03-20T07:40:16.926Z,93950.97
2018-03-20T07:42:43.563Z,93955.75
2018-03-20T07:45:10.478Z,93953.90
2018-03-20T07:47:39.122Z,93962.14
2018-03-20T07:50:03.806Z,93966.55
2018-03-20T07:52:30.401Z,93973.38
2018-03-20T07:54:57.080Z,93970.28
2018-03-20T07:57:23.698Z,93978.33
2018-03-20T07:59:50.425Z,93992.63
2018-03-20T08:02:18.542Z,93989.21
2018-03-20T08:04:43.672Z,93981.22
2018-03-20T08:07:10.278Z,93986.17
2018-03-20T08:09:36.913Z,93986.73
2018-03-20T08:12:03.597Z,93994.03
2018-03-20T08:14:30.355Z,93989.82
2018-03-20T08:16:56.963Z,93980.45
2018-03-20T08:19:23.607Z,93984.48
2018-03-20T08:21:50.272Z,93981.69
2018-03-20T08:24:16.925Z,93977.00
2018-03-20T08:26:45.893Z,93979.03
2018-03-20T08:29:12.537Z,93971.41
2018-03-20T08:31:39.137Z,93976.79
2018-03-20T08:34:05.823Z,93983.85
2018-03-20T08:36:33.508Z,93992.86
2018-03-20T08:39:00.218Z,93998.17
2018-03-20T08:41:26.870Z,93998.55
2018-03-20T08:43:53.499Z,94005.52
2018-03-20T08:46:20.145Z,94001.72
2018-03-20T08:48:46.864Z,94004.88
2018-03-20T08:51:13.609Z,94000.28
2018-03-20T08:53:42.423Z,94010.82
2018-03-20T08:56:06.927Z,94015.38
2018-03-20T08:58:33.600Z,94017.80
2018-03-20T09:01:00.350Z,94017.33
2018-03-20T09:03:27.081Z,94014.09
2018-03-20T09:05:53.845Z,94012.96
2018-03-20T09:08:20.449Z,94021.04
2018-03-20T09:10:47.087Z,94017.67
2018-03-20T09:13:13.823Z,94015.64
2018-03-20T09:15:40.519Z,94019.70
2018-03-20T09:18:07.131Z,94015.42
2018-03-20T09:20:33.773Z,94016.55
2018-03-20T09:23:02.456Z,94024.09
2018-03-20T09:25:27.090Z,94027.83
2018-03-20T09:27:54.579Z,94024.14
2018-03-20T09:30:21.279Z,94029.92
2018-03-20T09:32:50.395Z,94034.91
2018-03-20T09:35:20.033Z,94041.77
2018-03-20T09:37:46.737Z,94034.73
2018-03-20T09:40:13.717Z,94037.42
2018-03-20T09:42:40.391Z,94034.28
2018-03-20T09:45:07.083Z,94031.80
2018-03-20T09:47:33.802Z,94033.70
2018-03-20T09:50:00.456Z,94024.78
2018-03-20T09:52:28.131Z,94030.38
2018-03-20T09:54:54.818Z,94045.69
2018-03-20T09:57:21.463Z,94034.34
2018-03-20T09:59:48.114Z,94042.97
2018-03-20T10:02:14.936Z,94047.95
2018-03-20T10:04:41.523Z,94050.18
2018-03-20T10:07:08.200Z,94046.09
2018-03-20T10:09:34.840Z,94046.64
2018-03-20T10:12:01.593Z,94052.30
2018-03-20T10:14:28.365Z,94047.45
2018-03-20T10:16:55.039Z,94051.45
2018-03-20T10:19:22.823Z,94048.47
2018-03-20T10:21:48.443Z,94053.11
2018-03-20T10:24:15.056Z,94050.15
2018-03-20T10:26:41.690Z,94049.27
2018-03-20T10:29:08.361Z,94041.88
2018-03-20T10:31:34.974Z,94053.44
2018-03-20T10:34:01.651Z,94054.22
2018-03-20T10:36:28.268Z,94067.17
2018-03-20T10:38:54.920Z,94063.08
2018-03-20T10:41:21.596Z,94069.60
2018-03-20T10:43:48.240Z,94066.81
2018-03-20T10:46:14.817Z,94072.90
2018-03-20T10:48:41.464Z,94063.17
2018-03-20T10:51:08.102Z,94061.22
2018-03-20T10:53:34.806Z,94064.88
2018-03-20T10:56:01.455Z,94073.95
2018-03-20T10:58:28.058Z,94072.52
2018-03-20T11:00:54.704Z,94068.77
2018-03-20T11:03:21.508Z,94067.76
2018-03-20T11:05:48.147Z,94086.11
2018-03-20T11:08:14.895Z,94086.60
2018-03-20T11:10:41.716Z,94075.48
2018-03-20T11:13:08.421Z,94073.41
2018-03-20T11:15:35.033Z,94064.88
2018-03-20T11:18:01.717Z,94075.34
2018-03-20T11:20:28.335Z,94076.91
2018-03-20T11:22:55.043Z,94078.38
2018-03-20T11:25:21.683Z,94081.43
2018-03-20T11:27:48.374Z,94056.94
2018-03-20T11:30:15.159Z,94059.44
2018-03-20T11:32:45.771Z,94068.17
2018-03-20T11:35:12.462Z,94072.54
2018-03-20T11:37:39.085Z,94074.00
2018-03-20T11:40:05.803Z,94073.34
2018-03-20T11:42:32.491Z,94082.00
2018-03-20T11:44:59.291Z,94085.30
2018-03-20T11:47:26.028Z,94083.50
2018-03-20T11:49:53.855Z,94080.88
2018-03-20T11:52:20.447Z,94077.98
2018-03-20T11:54:47.124Z,94074.86
2018-03-20T11:57:13.779Z,94082.71
2018-03-20T11:59:40.555Z,94076.62
2018-03-20T12:02:07.198Z,94065.97
2018-03-20T12:04:33.926Z,94072.34
2018-03-20T12:07:01.871Z,94077.53
2018-03-20T12:09:27.334Z,94069.84
2018-03-20T12:11:53.917Z,94070.89
2018-03-20T12:14:21.989Z,94081.41
2018-03-20T12:16:47.282Z,94080.72
2018-03-20T12:19:15.203Z,94082.81
2018-03-20T12:21:42.360Z,94101.29
2018-03-20T12:24:07.195Z,94084.27
2018-03-20T12:29:00.571Z,94096.47
2018-03-20T12:31:27.258Z,94108.75
2018-03-20T12:33:53.921Z,94115.47
2018-03-20T12:36:21.599Z,94122.56
2018-03-20T12:38:48.241Z,94129.84
2018-03-20T12:41:14.893Z,94114.38
2018-03-20T12:43:42.844Z,94114.34
2018-03-20T12:46:08.300Z,94111.55
2018-03-20T12:48:38.199Z,94125.37
2018-03-20T12:51:04.795Z,94118.69
2018-03-20T12:53:31.592Z,94113.48
2018-03-20T12:55:58.269Z,94117.57
2018-03-20T12:58:26.337Z,94117.06
2018-03-20T13:00:51.591Z,94121.53
2018-03-20T13:03:18.242Z,94118.89
2018-03-20T13:05:44.966Z,94120.16
2018-03-20T13:08:11.657Z,94111.68
2018-03-20T13:10:38.623Z,94114.66
2018-03-20T13:13:05.343Z,94116.66
2018-03-20T13:15:32.001Z,94114.33
2018-03-20T13:17:59.712Z,94113.73
2018-03-20T13:20:27.433Z,94119.86
2018-03-20T13:22:54.088Z,94125.42
2018-03-20T13:25:20.761Z,94126.09
2018-03-20T13:27:47.751Z,94118.88
2018-03-20T13:30:14.390Z,94125.30
2018-03-20T13:32:41.042Z,94134.16
2018-03-20T13:35:07.719Z,94117.61
2018-03-20T13:37:34.449Z,94113.69
2018-03-20T13:40:01.122Z,94121.69
2018-03-20T13:42:27.700Z,94127.61
2018-03-20T13:44:54.368Z,94124.52
2018-03-20T13:47:21.090Z,94127.59
2018-03-20T13:49:47.742Z,94129.26
2018-03-20T13:52:14.405Z,94132.70
2018-03-20T13:54:41.086Z,94139.24
2018-03-20T13:57:08.003Z,94129.83
2018-03-20T13:59:34.663Z,94133.81
2018-03-20T14:02:03.388Z,94136.95
2018-03-20T14:04:27.999Z,94137.97
2018-03-20T14:06:57.932Z,94135.05
2018-03-20T14:09:24.616Z,94143.51
2018-03-20T14:11:51.268Z,94153.61
2018-03-20T14:14:19.040Z,94153.21
2018-03-20T14:16:45.669Z,94151.39
2018-03-20T14:19:12.394Z,94155.36
2018-03-20T14:21:40.411Z,94166.97
2018-03-20T14:24:05.689Z,94165.84
2018-03-20T14:26:32.428Z,94159.70
2018-03-20T14:28:59.045Z,94148.80
2018-03-20T14:31:25.730Z,94155.05
2018-03-20T14:33:52.462Z,94158.42
2018-03-20T14:36:21.353Z,94151.89
2018-03-20T14:38:48.140Z,94177.05
2018-03-20T14:41:14.813Z,94208.42
2018-03-20T14:43:41.543Z,94199.84
2018-03-20T14:46:08.144Z,94165.70
2018-03-20T14:48:34.848Z,94171.83
2018-03-20T14:51:04.389Z,94192.16
2018-03-20T14:53:31.030Z,94185.97
2018-03-20T14:55:57.674Z,94184.98
2018-03-20T14:58:24.382Z,94194.70
2018-03-20T15:00:51.124Z,94194.54
2018-03-20T15:03:17.727Z,94196.59
2018-03-20T15:05:44.420Z,94197.60
2018-03-20T15:08:11.057Z,94197.91
2018-03-20T15:10:37.702Z,94197.28
2018-03-20T15:13:04.332Z,94202.52
2018-03-20T15:15:31.060Z,94201.73
2018-03-20T15:17:57.731Z,94200.34
2018-03-20T15:20:24.375Z,94195.79
2018-03-20T15:22:51.027Z,94204.14
2018-03-20T15:25:17.671Z,94205.83
2018-03-20T15:27:44.321Z,94204.14
2018-03-20T15:30:11.104Z,94205.35
2018-03-20T15:32:37.842Z,94209.98
2018-03-20T15:35:04.443Z,94202.41
2018-03-20T15:37:31.120Z,94209.72
2018-03-20T15:39:57.756Z,94217.33
2018-03-20T15:42:24.416Z,94212.48
2018-03-20T15:44:52.399Z,94210.59
2018-03-20T15:47:17.655Z,94211.34
2018-03-20T15:49:44.295Z,94216.53
2018-03-20T15:52:10.944Z,94222.55
2018-03-20T15:54:37.606Z,94225.98
2018-03-20T15:57:04.285Z,94215.32
2018-03-20T15:59:32.359Z,94201.94
2018-03-20T16:01:57.599Z,94212.48
2018-03-20T16:04:24.213Z,94245.06
2018-03-20T16:06:52.328Z,94248.23
2018-03-20T16:09:17.517Z,94251.22
2018-03-20T16:11:44.368Z,94257.32
2018-03-20T16:14:11.036Z,94246.86
2018-03-20T16:16:37.718Z,94252.48
2018-03-20T16:19:04.315Z,94262.32
2018-03-20T16:21:30.967Z,94259.25
2018-03-20T16:23:57.602Z,94268.52
2018-03-20T16:26:24.239Z,94289.63
2018-03-20T16:28:50.907Z,94294.83
2018-03-20T16:31:17.536Z,94285.70
2018-03-20T16:33:44.197Z,94294.48
2018-03-20T16:36:10.904Z,94295.28
2018-03-20T16:38:37.549Z,94295.21
2018-03-20T16:41:04.298Z,94298.44
2018-03-20T16:43:31.002Z,94304.38
2018-03-20T16:45:57.695Z,94314.39
2018-03-20T16:48:24.380Z,94322.74
2018-03-20T16:50:51.153Z,94322.02
2018-03-20T16:53:17.793Z,94323.16
2018-03-20T16:55:44.392Z,94314.37
2018-03-20T16:58:11.107Z,94310.02
2018-03-20T17:00:37.806Z,94314.09
2018-03-20T17:03:04.481Z,94316.62
2018-03-20T17:05:31.105Z,94328.58
2018-03-20T17:07:57.742Z,94340.55
2018-03-20T17:10:24.387Z,94343.97
2018-03-20T17:12:51.033Z,94348.14
2018-03-20T17:15:17.800Z,94355.45
2018-03-20T17:17:44.469Z,94355.66
2018-03-20T17:20:11.077Z,94357.16
2018-03-20T17:22:37.746Z,94352.38
2018-03-20T17:25:04.484Z,94353.57
2018-03-20T17:27:31.124Z,94359.01
2018-03-20T17:29:57.737Z,94361.10
2018-03-20T17:32:25.729Z,94366.11
2018-03-20T17:34:51.245Z,94379.05
2018-03-20T17:37:17.879Z,94391.13
2018-03-20T17:39:44.482Z,94408.92
2018-03-20T17:42:11.207Z,94404.53
2018-03-20T17:44:38.883Z,94392.28
2018-03-20T17:47:04.573Z,94397.63
2018-03-20T17:49:31.499Z,94400.78
2018-03-20T17:51:58.137Z,94401.23
2018-03-20T17:54:27.823Z,94404.13
2018-03-20T17:56:54.506Z,94392.89
2018-03-20T17:59:21.183Z,94417.34
2018-03-20T18:01:47.810Z,94421.99
2018-03-20T18:04:14.546Z,94417.71
2018-03-20T18:06:41.226Z,94414.48
2018-03-20T18:09:07.860Z,94416.03
2018-03-20T18:11:35.925Z,94421.97
2018-03-20T18:14:01.142Z,94433.28
2018-03-20T18:16:27.802Z,94438.63
2018-03-20T18:18:54.510Z,94442.72
2018-03-20T18:21:21.215Z,94448.36
2018-03-20T18:23:47.896Z,94443.81
2018-03-20T18:26:14.527Z,94438.81
2018-03-20T18:28:41.237Z,94438.70
2018-03-20T18:31:07.867Z,94447.15
2018-03-20T18:33:34.482Z,94439.34
2018-03-20T18:36:01.275Z,94440.27
2018-03-20T18:38:27.915Z,94453.06
2018-03-20T18:40:54.622Z,94452.69
2018-03-20T18:43:21.300Z,94453.97
2018-03-20T18:45:47.926Z,94452.38
2018-03-20T18:48:14.613Z,94457.94
2018-03-20T18:50:41.225Z,94460.43
2018-03-20T18:53:07.922Z,94459.98
2018-03-20T18:55:34.663Z,94456.44
2018-03-20T18:58:01.341Z,94466.63
2018-03-20T19:00:28.092Z,94463.20
2018-03-20T19:02:57.823Z,94448.44
2018-03-20T19:05:24.529Z,94455.50
2018-03-20T19:07:51.149Z,94474.86
2018-03-20T19:10:17.902Z,94475.61
2018-03-20T19:12:48.200Z,94469.94
2018-03-20T19:15:13.789Z,94483.58
2018-03-20T19:17:40.525Z,94487.82
2018-03-20T19:20:07.127Z,94496.43
2018-03-20T19:22:34.984Z,94515.41
2018-03-20T19:25:01.626Z,94500.38
2018-03-20T19:27:28.272Z,94521.45
2018-03-20T19:29:54.993Z,94517.73
2018-03-20T19:32:21.670Z,94495.86
2018-03-20T19:34:48.280Z,94520.41
2018-03-20T19:37:14.962Z,94527.63
2018-03-20T19:39:41.567Z,94514.73
2018-03-20T19:42:08.325Z,94521.57
2018-03-20T19:44:34.978Z,94518.67
2018-03-20T19:47:01.649Z,94514.50
2018-03-20T19:49:28.346Z,94529.28
2018-03-20T19:51:54.946Z,94535.83
2018-03-20T19:54:21.607Z,94534.77
2018-03-20T19:56:48.285Z,94527.34
2018-03-20T19:59:15.131Z,94541.21
2018-03-20T20:01:41.994Z,94550.74
2018-03-20T20:04:12.140Z,94549.14
2018-03-20T20:06:38.811Z,94540.31
2018-03-20T20:09:05.422Z,94537.91
2018-03-20T20:11:32.149Z,94547.80
2018-03-20T20:13:58.826Z,94557.98
2018-03-20T20:16:26.883Z,94559.86
2018-03-20T20:18:52.182Z,94544.72
2018-03-20T20:21:18.872Z,94537.77
2018-03-20T20:23:45.488Z,94549.87
2018-03-20T20:26:12.128Z,94547.73
2018-03-20T20:28:38.807Z,94549.91
2018-03-20T20:31:05.496Z,94554.94
2018-03-20T20:33:32.085Z,94555.69
2018-03-20T20:35:58.723Z,94555.09
2018-03-20T20:38:25.424Z,94544.39
2018-03-20T20:40:52.051Z,94538.68
2018-03-20T20:43:19.873Z,94549.11
2018-03-20T20:45:45.415Z,94554.61
2018-03-20T20:48:12.101Z,94554.17
2018-03-20T20:50:38.696Z,94555.09
2018-03-20T20:53:05.369Z,94553.48
2018-03-20T20:55:32.046Z,94548.41
2018-03-20T20:57:58.738Z,94560.72
2018-03-20T21:00:25.423Z,94566.22
2018-03-20T21:02:52.152Z,94560.34
2018-03-20T21:05:18.720Z,94560.55
2018-03-20T21:07:45.446Z,94568.25
2018-03-20T21:10:12.141Z,94567.30
2018-03-20T21:12:38.784Z,94568.02
2018-03-20T21:15:05.556Z,94564.23
2018-03-20T21:17:32.236Z,94566.97
2018-03-20T21:19:58.871Z,94558.58
2018-03-20T21:22:27.914Z,94566.17
2018-03-20T21:24:54.711Z,94576.42
2018-03-20T21:27:21.423Z,94577.29
2018-03-20T21:29:48.140Z,94574.44
2018-03-20T21:32:14.747Z,94576.84
2018-03-20T21:34:41.425Z,94573.87
2018-03-20T21:37:08.193Z,94574.14
2018-03-20T21:39:34.882Z,94569.59
2018-03-20T21:42:01.500Z,94574.28
2018-03-20T21:44:28.194Z,94577.81
2018-03-20T21:46:54.843Z,94576.60
2018-03-20T21:49:21.528Z,94568.41
2018-03-20T21:51:48.221Z,94572.26
2018-03-20T21:54:14.853Z,94574.46
2018-03-20T21:56:41.599Z,94574.28
2018-03-20T21:59:11.128Z,94580.55
2018-03-20T22:01:37.902Z,94589.20
2018-03-20T22:04:04.585Z,94592.98
2018-03-20T22:06:37.443Z,94591.41
2018-03-20T22:09:07.036Z,94605.19
2018-03-20T22:11:33.724Z,94601.13
2018-03-20T22:14:00.434Z,94607.06
2018-03-20T22:16:27.156Z,94601.18
2018-03-20T22:18:53.815Z,94601.81
2018-03-20T22:21:20.537Z,94605.61
2018-03-20T22:23:47.279Z,94609.03
2018-03-20T22:26:13.935Z,94603.39
2018-03-20T22:28:40.690Z,94597.71
2018-03-20T22:31:07.352Z,94598.30
2018-03-20T22:33:34.142Z,94601.31
2018-03-20T22:36:00.800Z,94595.42
2018-03-20T22:38:28.414Z,94593.05
2018-03-20T22:40:55.226Z,94590.34
2018-03-20T22:43:21.970Z,94592.73
2018-03-20T22:45:48.647Z,94595.13
2018-03-20T22:48:15.378Z,94587.03
2018-03-20T22:50:42.148Z,94586.59
2018-03-20T22:53:11.652Z,94594.18
2018-03-20T22:55:38.297Z,94592.37
2018-03-20T22:58:04.962Z,94598.99
2018-03-20T23:00:31.680Z,94588.05
2018-03-20T23:02:58.344Z,94598.78
2018-03-20T23:05:24.983Z,94603.42
2018-03-20T23:07:51.727Z,94604.09
2018-03-20T23:10:18.404Z,94603.65
2018-03-20T23:12:45.110Z,94602.52
2018-03-20T23:15:12.058Z,94610.17
2018-03-20T23:17:38.776Z,94609.53
2018-03-20T23:20:05.533Z,94610.42
2018-03-20T23:22:34.931Z,94619.77
2018-03-20T23:25:01.720Z,94618.19
2018-03-20T23:27:28.610Z,94617.00
2018-03-20T23:29:55.262Z,94630.11
2018-03-20T23:32:21.999Z,94639.29
2018-03-20T23:34:48.708Z,94638.60
2018-03-20T23:37:15.390Z,94628.23
2018-03-20T23:39:42.097Z,94632.14
2018-03-20T23:42:10.163Z,94635.50
2018-03-20T23:44:35.605Z,94627.22
2018-03-20T23:47:02.328Z,94620.21
2018-03-20T23:49:29.122Z,94620.78
2018-03-20T23:51:55.785Z,94624.76
2018-03-20T23:54:22.506Z,94643.20
2018-03-20T23:56:52.013Z,94637.38
2018-03-20T23:59:19.025Z,94625.28
